Time;durP1;ratioP1;P1;durP2;ratioP2;P2;SDS_P1;SDS_P2;PMS_P1;PMS_P2;Temp;Humidity;BMP_temperature;BMP_pressure;BME280_temperature;BME280_humidity;BME280_pressure;Samples;Min_cycle;Max_cycle;Signal;HPM_P1;HPM_P2
2023/01/04 00:01:25;;;;;;;5.32;2.30;;;8.50;99.90;;;;;;6182867;23;20043;-77
2023/01/04 00:07:24;;;;;;;;;;;;;;;;;;;;;
2023/01/04 00:17:38;;;;;;;5.93;2.55;;;8.90;99.90;;;;;;6028838;23;20047;-76
2023/01/04 00:25:06;;;;;;;3.63;2.00;;;7.40;99.90;;;;;;6042594;23;20035;-78
2023/01/04 00:35:16;;;;;;;5.28;2.95;;;9.90;99.90;;;;;;5983970;23;20021;-79
2023/01/04 00:49:51;;;;;;;;;;;;;;;;;;;;;
2023/01/04 00:57:14;;;;;;;;;;;;;;;;;;;;;
2023/01/04 01:07:51;;;;;;;;;;;;;;;;;;;;;
2023/01/04 01:10:44;;;;;;;5.60;3.00;;;7.50;99.90;;;;;;5822647;24;20018;-78
2023/01/04 01:13:58;;;;;;;5.40;3.00;;;9.60;99.90;;;;;;5890294;24;20021;-78
2023/01/04 01:20:45;;;;;;;6.75;3.67;;;10.30;99.90;;;;;;6105344;23;20029;-77
2023/01/04 01:23:31;;;;;;;9.50;3.58;;;8.40;99.90;;;;;;6122133;23;20300;-78
2023/01/04 01:26:17;;;;;;;6.57;3.80;;;9.20;99.90;;;;;;6072536;23;20066;-78
2023/01/04 01:32:47;;;;;;;6.55;3.80;;;9.70;99.90;;;;;;6082065;23;20024;-77
2023/01/04 01:35:42;;;;;;;5.47;3.15;;;7.60;99.90;;;;;;6091364;23;20217;-78
2023/01/04 01:41:41;;;;;;;7.13;4.05;;;7.70;99.90;;;;;;6115173;23;20021;-78
2023/01/04 01:44:31;;;;;;;8.85;3.83;;;8.70;99.90;;;;;;6134898;23;20032;-77
2023/01/04 01:53:40;;;;;;;6.60;3.95;;;8.90;99.90;;;;;;6118026;23;20458;-77
2023/01/04 01:56:07;;;;;;;6.10;3.40;;;6.90;99.90;;;;;;6142441;23;20017;-76
2023/01/04 01:59:08;;;;;;;4.53;3.20;;;8.80;99.90;;;;;;6170333;23;20026;-78
2023/01/04 02:02:00;;;;;;;4.93;3.13;;;9.00;99.90;;;;;;6102510;23;20046;-77
2023/01/04 02:04:55;;;;;;;7.38;3.67;;;8.90;99.90;;;;;;6116486;23;20252;-77
2023/01/04 02:07:48;;;;;;;7.25;3.83;;;8.90;99.90;;;;;;6096664;23;20036;-78
2023/01/04 02:10:14;;;;;;;6.20;3.47;;;8.70;99.90;;;;;;6157941;23;20013;-76
2023/01/04 02:14:37;;;;;;;5.72;4.07;;;7.10;99.90;;;;;;6132937;23;20014;-76
2023/01/04 02:16:20;;;;;;;4.68;3.13;;;8.80;99.90;;;;;;6076842;23;20025;-76
2023/01/04 02:19:12;;;;;;;7.32;2.88;;;8.50;99.90;;;;;;6109046;23;20028;-77
2023/01/04 02:22:10;;;;;;;9.02;2.83;;;8.60;99.90;;;;;;6071021;23;20013;-76
2023/01/04 02:24:53;;;;;;;6.07;3.58;;;8.90;99.90;;;;;;6133177;23;20021;-77
2023/01/04 02:27:47;;;;;;;6.85;3.17;;;8.90;99.90;;;;;;6108987;23;20307;-78
2023/01/04 02:30:35;;;;;;;5.75;3.47;;;8.70;99.90;;;;;;6111045;23;20017;-79
2023/01/04 02:33:45;;;;;;;4.32;2.78;;;8.60;99.90;;;;;;6169676;23;20012;-81
2023/01/04 02:36:52;;;;;;;5.00;3.03;;;10.30;99.90;;;;;;6202004;23;20020;-80
2023/01/04 02:39:38;;;;;;;3.38;2.40;;;8.80;99.90;;;;;;6083569;23;20346;-80
2023/01/04 02:42:23;;;;;;;;;;;;;;;;;;;;;
2023/01/04 02:45:12;;;;;;;5.30;2.28;;;8.70;99.90;;;;;;6235021;23;20008;-81
2023/01/04 02:50:42;;;;;;;4.75;2.65;;;8.80;99.90;;;;;;6228411;23;20034;-82
2023/01/04 02:53:27;;;;;;;4.90;2.80;;;7.90;99.90;;;;;;6226849;23;20047;-81
2023/01/04 03:00:29;;;;;;;;;;;;;;;;;;;;;
2023/01/04 03:06:58;;;;;;;3.22;2.38;;;8.90;99.90;;;;;;6199855;23;20330;-78
2023/01/04 03:09:34;;;;;;;2.70;2.08;;;9.40;99.90;;;;;;6200914;23;20012;-78
2023/01/04 03:12:34;;;;;;;2.78;2.25;;;9.30;99.90;;;;;;6200725;23;20109;-79
2023/01/04 03:15:09;;;;;;;4.00;2.90;;;9.40;99.90;;;;;;6200981;23;20015;-82
2023/01/04 03:17:42;;;;;;;4.05;2.10;;;9.20;99.90;;;;;;6202340;23;20043;-80
2023/01/04 03:20:10;;;;;;;2.50;1.90;;;9.30;99.90;;;;;;6201136;23;20014;-81
2023/01/04 03:37:25;;;;;;;3.47;2.35;;;9.50;99.90;;;;;;6203343;23;20023;-77
2023/01/04 03:52:58;;;;;;;3.83;2.08;;;11.00;99.90;;;;;;6225618;23;20016;-78
2023/01/04 03:55:26;;;;;;;2.92;1.90;;;9.80;99.90;;;;;;6201328;23;20430;-78
2023/01/04 03:57:54;;;;;;;2.20;1.70;;;9.90;99.90;;;;;;6225109;23;20194;-78
2023/01/04 04:00:20;;;;;;;3.25;1.63;;;9.70;99.90;;;;;;6201391;23;20420;-78
2023/01/04 04:02:47;;;;;;;4.22;2.28;;;9.90;99.90;;;;;;6201518;23;20022;-78
2023/01/04 04:10:48;;;;;;;2.63;1.80;;;10.10;99.90;;;;;;6225930;23;20022;-77
2023/01/04 04:13:14;;;;;;;2.83;2.10;;;10.20;99.90;;;;;;6200451;23;20012;-78
2023/01/04 04:15:39;;;;;;;2.13;1.80;;;10.20;99.90;;;;;;6176275;23;20058;-79
2023/01/04 04:18:05;;;;;;;2.22;1.88;;;10.20;99.90;;;;;;6199968;23;20063;-80
2023/01/04 04:20:31;;;;;;;3.42;2.20;;;10.40;99.90;;;;;;6151703;23;20012;-78
2023/01/04 04:22:57;;;;;;;3.13;2.03;;;10.30;99.90;;;;;;6224518;23;20019;-79
2023/01/04 04:25:22;;;;;;;1.92;1.67;;;10.40;99.90;;;;;;6175581;23;20282;-79
2023/01/04 04:27:48;;;;;;;2.70;1.90;;;10.30;99.90;;;;;;6175814;23;20016;-78
2023/01/04 04:30:14;;;;;;;2.40;1.90;;;10.50;99.90;;;;;;6200989;23;20016;-79
2023/01/04 04:32:40;;;;;;;2.20;1.90;;;10.30;99.90;;;;;;6176125;23;20199;-80
2023/01/04 04:35:14;;;;;;;2.40;2.20;;;10.70;99.90;;;;;;6179067;23;20334;-80
2023/01/04 04:37:40;;;;;;;2.75;2.22;;;10.60;99.90;;;;;;6200121;23;20063;-80
2023/01/04 04:41:37;;;;;;;2.42;2.20;;;10.50;99.90;;;;;;6174673;23;20039;-79
2023/01/04 04:42:53;;;;;;;3.30;2.28;;;10.70;99.90;;;;;;6225992;23;20016;-78
2023/01/04 04:45:21;;;;;;;2.60;2.20;;;10.70;99.90;;;;;;6175020;23;20064;-79
2023/01/04 04:47:50;;;;;;;3.00;2.70;;;11.80;99.90;;;;;;6200187;23;20035;-78
2023/01/04 04:50:16;;;;;;;2.90;2.58;;;10.70;99.90;;;;;;6173887;23;20039;-79
2023/01/04 04:52:55;;;;;;;;;;;;;;;;;;;;;
2023/01/04 04:55:21;;;;;;;3.92;3.30;;;11.10;99.90;;;;;;6181496;23;20233;-81
2023/01/04 04:57:49;;;;;;;4.32;2.92;;;11.10;99.90;;;;;;6201725;23;20012;-80
2023/01/04 05:00:33;;;;;;;3.38;2.80;;;10.70;99.90;;;;;;6200769;23;20557;-79
2023/01/04 05:03:02;;;;;;;3.55;3.20;;;11.10;99.90;;;;;;6199685;23;20020;-80
2023/01/04 05:05:28;;;;;;;3.55;3.17;;;10.90;99.90;;;;;;6166482;23;20020;-79
2023/01/04 05:07:56;;;;;;;4.38;3.30;;;10.80;99.90;;;;;;6195382;23;20025;-79
2023/01/04 05:10:22;;;;;;;3.70;3.03;;;11.00;99.90;;;;;;6145463;23;20016;-79
2023/01/04 05:13:00;;;;;;;3.75;3.35;;;11.00;99.90;;;;;;6170772;23;20299;-78
2023/01/04 05:15:47;;;;;;;3.78;3.30;;;11.40;99.90;;;;;;6169982;23;20040;-80
2023/01/04 05:18:15;;;;;;;3.05;2.60;;;11.40;99.90;;;;;;6194600;23;20095;-79
2023/01/04 05:20:40;;;;;;;3.83;2.88;;;11.00;99.90;;;;;;6194948;23;20020;-78
2023/01/04 05:23:07;;;;;;;3.15;2.78;;;11.00;99.90;;;;;;6194756;23;20020;-79
2023/01/04 05:25:33;;;;;;;3.70;2.55;;;11.10;99.90;;;;;;6170668;23;20009;-78
2023/01/04 05:27:59;;;;;;;3.03;2.60;;;11.40;99.90;;;;;;6194563;23;20008;-78
2023/01/04 05:34:35;;;;;;;3.97;3.17;;;11.40;99.90;;;;;;6174272;23;20024;-77
2023/01/04 05:37:01;;;;;;;3.75;3.25;;;11.30;99.90;;;;;;6024512;23;20025;-80
2023/01/04 05:39:27;;;;;;;3.20;2.90;;;11.40;99.90;;;;;;6001020;23;20014;-79
2023/01/04 05:44:37;;;;;;;4.55;3.20;;;11.70;99.90;;;;;;6173850;23;20027;-79
2023/01/04 05:47:02;;;;;;;3.88;3.03;;;11.50;99.90;;;;;;6145073;23;20008;-78
2023/01/04 05:49:37;;;;;;;5.00;2.72;;;11.60;99.90;;;;;;6169850;23;20295;-78
2023/01/04 05:52:05;;;;;;;3.70;2.67;;;11.40;99.90;;;;;;6170604;23;20570;-78
2023/01/04 05:54:31;;;;;;;4.65;2.95;;;11.50;99.90;;;;;;6170583;23;20036;-78
2023/01/04 05:56:57;;;;;;;3.00;2.60;;;11.40;99.90;;;;;;6192416;23;20365;-78
2023/01/04 05:59:22;;;;;;;5.70;2.78;;;11.70;99.90;;;;;;6170160;23;20016;-78
2023/01/04 06:01:48;;;;;;;3.70;2.75;;;11.50;99.90;;;;;;6195321;23;20059;-79
2023/01/04 06:07:28;;;;;;;2.70;2.50;;;11.80;99.90;;;;;;6162066;23;20219;-78
2023/01/04 06:09:53;;;;;;;2.78;2.17;;;11.40;99.90;;;;;;6171585;23;20265;-78
2023/01/04 06:12:19;;;;;;;3.22;2.08;;;11.50;99.90;;;;;;6146747;23;20020;-78
2023/01/04 06:15:06;;;;;;;4.15;1.95;;;11.70;99.90;;;;;;6197541;23;20020;-81
2023/01/04 06:17:33;;;;;;;4.20;2.00;;;11.40;99.90;;;;;;6194559;23;20019;-79
2023/01/04 06:19:58;;;;;;;2.60;2.00;;;11.30;99.90;;;;;;6148108;23;20055;-79
2023/01/04 06:22:25;;;;;;;2.45;2.00;;;11.60;99.90;;;;;;6171458;23;20009;-78
2023/01/04 06:24:54;;;;;;;5.85;2.40;;;11.60;99.90;;;;;;6172322;23;20013;-78
2023/01/04 06:27:20;;;;;;;4.60;2.10;;;11.70;99.90;;;;;;6169666;23;20107;-79
2023/01/04 06:29:46;;;;;;;2.97;2.00;;;11.70;99.90;;;;;;6172467;23;20008;-78
2023/01/04 06:32:12;;;;;;;2.33;2.08;;;11.50;99.90;;;;;;6171666;23;20089;-78
2023/01/04 06:34:38;;;;;;;3.50;2.47;;;11.80;99.90;;;;;;6172570;23;20013;-77
2023/01/04 06:37:04;;;;;;;4.22;2.58;;;11.50;99.90;;;;;;6170332;23;20028;-78
2023/01/04 06:39:30;;;;;;;2.83;2.17;;;11.50;99.90;;;;;;6172725;23;20021;-79
2023/01/04 06:41:56;;;;;;;3.25;2.15;;;11.50;99.90;;;;;;6172503;23;20012;-79
2023/01/04 06:44:22;;;;;;;3.00;2.10;;;11.70;99.90;;;;;;6147462;23;20019;-78
2023/01/04 06:46:47;;;;;;;4.38;2.20;;;11.70;99.90;;;;;;6147503;23;20024;-80
2023/01/04 06:49:13;;;;;;;7.07;2.70;;;11.70;99.90;;;;;;6172415;23;20009;-80
2023/01/04 06:51:39;;;;;;;3.25;2.40;;;11.60;99.90;;;;;;6173861;23;20009;-82
2023/01/04 06:54:14;;;;;;;2.30;2.10;;;11.60;99.90;;;;;;6148557;23;20012;-79
2023/01/04 06:56:46;;;;;;;;;;;11.80;99.90;;;;;;6171439;23;20024;-79
2023/01/04 06:59:14;;;;;;;3.20;2.25;;;10.50;99.90;;;;;;6194053;23;20096;-79
2023/01/04 07:02:05;;;;;;;;;;;;;;;;;;;;;
2023/01/04 07:04:49;;;;;;;3.42;2.08;;;11.80;99.90;;;;;;6180442;23;20027;-78
2023/01/04 07:07:18;;;;;;;2.25;1.90;;;11.80;99.90;;;;;;6193475;23;20008;-75
2023/01/04 07:09:43;;;;;;;2.80;2.47;;;11.90;99.90;;;;;;6198689;23;20028;-77
2023/01/04 07:12:30;;;;;;;2.97;2.08;;;11.70;99.90;;;;;;6198984;23;20059;-78
2023/01/04 07:15:08;;;;;;;;;;;;;;;;;;;;;
2023/01/04 07:17:34;;;;;;;4.95;2.45;;;11.80;99.90;;;;;;6203602;23;20039;-78
2023/01/04 07:20:00;;;;;;;3.45;2.20;;;11.60;99.90;;;;;;6201359;23;20008;-77
2023/01/04 07:22:26;;;;;;;2.80;2.03;;;11.60;99.90;;;;;;6172352;23;20079;-80
2023/01/04 07:31:54;;;;;;;6.50;4.00;;;10.40;99.90;;;;;;6075192;23;20022;-83
2023/01/04 07:37:14;;;;;;;6.82;3.75;;;13.70;99.90;;;;;;6218616;23;20035;-80
2023/01/04 07:39:50;;;;;;;6.32;3.88;;;12.00;99.90;;;;;;6201120;23;20033;-83
2023/01/04 07:42:20;;;;;;;4.35;3.63;;;12.00;99.90;;;;;;6197257;23;20055;-80
2023/01/04 07:44:46;;;;;;;4.75;3.35;;;12.10;99.90;;;;;;6225617;23;20019;-81
2023/01/04 07:48:07;;;;;;;;;;;;;;;;;;;;;
2023/01/04 07:50:49;;;;;;;4.82;2.95;;;11.40;99.90;;;;;;6253528;23;20016;-79
2023/01/04 07:53:18;;;;;;;4.38;2.78;;;11.90;99.90;;;;;;6200755;23;20043;-79
2023/01/04 07:55:43;;;;;;;4.43;3.03;;;12.00;99.90;;;;;;6176314;23;20038;-81
2023/01/04 07:58:09;;;;;;;3.83;2.40;;;11.90;99.90;;;;;;6202401;23;20012;-80
2023/01/04 08:00:35;;;;;;;3.22;2.28;;;11.90;99.90;;;;;;6201527;23;20038;-80
2023/01/04 08:03:01;;;;;;;4.72;2.35;;;12.00;99.90;;;;;;6226630;23;20008;-74
2023/01/04 08:05:26;;;;;;;3.63;2.28;;;11.90;99.90;;;;;;6198351;22;20020;-80
2023/01/04 08:07:58;;;;;;;5.50;2.28;;;11.90;99.90;;;;;;6147729;23;20326;-80
2023/01/04 08:10:24;;;;;;;4.68;2.75;;;12.00;99.90;;;;;;6171128;23;20016;-78
2023/01/04 08:12:50;;;;;;;3.60;2.30;;;10.30;99.90;;;;;;6145536;23;20340;-78
2023/01/04 08:15:16;;;;;;;4.65;2.75;;;12.00;99.90;;;;;;6168984;23;20167;-79
2023/01/04 08:17:41;;;;;;;5.85;2.50;;;11.90;99.90;;;;;;6146129;23;20019;-77
2023/01/04 08:20:08;;;;;;;4.63;2.55;;;12.00;99.90;;;;;;6171235;23;20012;-78
2023/01/04 08:22:33;;;;;;;4.68;2.35;;;12.00;99.90;;;;;;6169930;23;20051;-78
2023/01/04 08:24:59;;;;;;;2.95;2.47;;;12.00;99.90;;;;;;6195620;23;20279;-79
2023/01/04 08:27:25;;;;;;;3.40;2.25;;;12.00;99.90;;;;;;6169589;23;20009;-78
2023/01/04 08:29:50;;;;;;;3.55;2.38;;;11.90;99.90;;;;;;6171316;23;20013;-78
2023/01/04 08:32:16;;;;;;;3.25;2.35;;;12.00;99.90;;;;;;6144122;23;20608;-78
2023/01/04 08:34:44;;;;;;;3.17;2.40;;;12.10;99.90;;;;;;6146065;23;20028;-78
2023/01/04 08:37:10;;;;;;;3.40;2.50;;;12.00;99.90;;;;;;6169835;23;20016;-78
2023/01/04 08:39:36;;;;;;;4.13;2.75;;;12.00;99.90;;;;;;6169644;23;20016;-79
2023/01/04 08:42:46;;;;;;;3.17;2.50;;;12.00;99.90;;;;;;6121635;23;20058;-77
2023/01/04 08:45:11;;;;;;;3.05;2.50;;;12.10;99.90;;;;;;6194776;23;20032;-77
2023/01/04 08:47:36;;;;;;;2.65;2.40;;;11.90;99.90;;;;;;6144339;23;20032;-77
2023/01/04 08:50:02;;;;;;;4.38;2.05;;;12.00;99.90;;;;;;6170242;23;20040;-78
2023/01/04 08:52:31;;;;;;;3.10;2.38;;;11.90;99.90;;;;;;6169912;23;20020;-78
2023/01/04 08:54:57;;;;;;;4.18;2.42;;;12.00;99.90;;;;;;6169056;23;20211;-77
2023/01/04 08:57:23;;;;;;;5.35;2.22;;;12.10;99.90;;;;;;6191697;23;20031;-79
2023/01/04 08:59:49;;;;;;;4.13;2.10;;;12.10;99.90;;;;;;6167104;23;20075;-78
2023/01/04 09:02:21;;;;;;;3.05;1.90;;;12.00;99.90;;;;;;6142829;23;20020;-78
2023/01/04 09:04:48;;;;;;;2.22;2.03;;;12.00;99.90;;;;;;6168814;23;20069;-78
2023/01/04 09:07:14;;;;;;;3.50;1.98;;;12.00;99.90;;;;;;6166325;23;20016;-78
2023/01/04 09:09:42;;;;;;;3.40;1.70;;;12.00;99.90;;;;;;6167273;23;20022;-79
2023/01/04 09:12:08;;;;;;;3.17;1.95;;;12.10;99.90;;;;;;6144055;23;20016;-79
2023/01/04 09:14:34;;;;;;;3.25;1.70;;;12.00;99.90;;;;;;6120006;23;20291;-79
2023/01/04 09:17:00;;;;;;;2.88;1.42;;;12.10;99.90;;;;;;6166041;23;20008;-79
2023/01/04 09:19:26;;;;;;;3.83;1.70;;;12.00;99.90;;;;;;6142670;23;20039;-78
2023/01/04 09:21:54;;;;;;;3.58;1.77;;;12.10;99.90;;;;;;6141327;23;20051;-78
2023/01/04 09:24:20;;;;;;;3.60;1.50;;;12.10;99.90;;;;;;6143605;23;20012;-74
2023/01/04 09:26:57;;;;;;;2.55;1.38;;;12.10;99.90;;;;;;6166199;23;20035;-76
2023/01/04 09:29:24;;;;;;;4.88;1.75;;;12.10;99.90;;;;;;6143748;23;20075;-77
2023/01/04 09:31:50;;;;;;;3.17;1.70;;;12.10;99.90;;;;;;6165110;23;20016;-78
2023/01/04 09:34:16;;;;;;;2.42;1.20;;;12.10;99.90;;;;;;6168484;23;20027;-78
2023/01/04 09:36:46;;;;;;;3.90;1.55;;;12.10;99.90;;;;;;6191200;23;20020;-77
2023/01/04 09:39:12;;;;;;;3.97;1.67;;;12.10;99.90;;;;;;6166576;23;20016;-76
2023/01/04 09:41:44;;;;;;;2.65;1.80;;;12.10;99.90;;;;;;6162867;23;20081;-76
2023/01/04 09:44:42;;;;;;;5.70;2.53;;;12.00;99.90;;;;;;6191480;23;20015;-76
2023/01/04 09:47:33;;;;;;;5.40;2.25;;;12.10;99.90;;;;;;6162047;23;20013;-76
2023/01/04 09:50:05;;;;;;;5.82;2.58;;;12.00;99.90;;;;;;6189612;23;20008;-77
2023/01/04 09:52:49;;;;;;;9.05;2.90;;;12.10;99.90;;;;;;6162438;23;20020;-74
2023/01/04 09:55:44;;;;;;;6.68;2.42;;;12.10;99.90;;;;;;6165948;23;20028;-79
2023/01/04 09:58:41;;;;;;;8.80;3.25;;;12.00;99.90;;;;;;6191263;23;20012;-79
2023/01/04 10:01:34;;;;;;;6.68;2.75;;;12.20;99.90;;;;;;6188411;23;20075;-78
2023/01/04 10:04:12;;;;;;;11.82;3.63;;;12.10;99.90;;;;;;6146028;23;20040;-78
2023/01/04 10:06:38;;;;;;;8.50;3.10;;;12.70;99.90;;;;;;6163091;23;20028;-79
2023/01/04 10:09:11;;;;;;;9.05;3.00;;;12.10;99.90;;;;;;6189992;23;20028;-78
2023/01/04 10:11:44;;;;;;;10.10;3.10;;;12.10;99.90;;;;;;6188428;23;20040;-79
2023/01/04 10:14:28;;;;;;;8.70;2.92;;;12.30;99.90;;;;;;6188277;23;20020;-79
2023/01/04 10:17:07;;;;;;;11.63;3.78;;;12.10;99.90;;;;;;6189301;23;20021;-78
2023/01/04 10:19:36;;;;;;;10.60;2.95;;;12.20;99.90;;;;;;6164657;23;20020;-78
2023/01/04 10:22:24;;;;;;;9.77;2.85;;;12.20;99.90;;;;;;6189773;23;20084;-76
2023/01/04 10:25:14;;;;;;;14.45;3.92;;;12.30;99.90;;;;;;6189388;23;20005;-76
2023/01/04 10:27:42;;;;;;;14.77;3.40;;;12.20;99.90;;;;;;6164511;23;20009;-75
2023/01/04 10:30:29;;;;;;;11.38;2.90;;;12.20;99.90;;;;;;6189333;23;20008;-74
2023/01/04 10:33:10;;;;;;;12.55;3.88;;;12.30;99.90;;;;;;6163901;23;20059;-75
2023/01/04 10:35:39;;;;;;;11.98;3.30;;;12.30;99.90;;;;;;6188947;23;20019;-76
2023/01/04 10:38:26;;;;;;;11.30;3.05;;;12.20;99.90;;;;;;6158105;23;20016;-75
2023/01/04 10:40:56;;;;;;;20.70;4.60;;;12.40;99.90;;;;;;6163821;23;20051;-75
2023/01/04 10:43:46;;;;;;;14.75;3.17;;;12.40;99.90;;;;;;6162255;23;20020;-75
2023/01/04 10:46:29;;;;;;;16.42;3.08;;;12.30;99.90;;;;;;6190216;23;20015;-74
2023/01/04 10:49:01;;;;;;;15.85;3.75;;;12.30;99.90;;;;;;6165761;23;20066;-79
2023/01/04 10:51:43;;;;;;;19.15;3.90;;;12.30;99.90;;;;;;6168315;23;20019;-79
2023/01/04 10:54:41;;;;;;;21.02;4.05;;;12.50;99.90;;;;;;6190172;23;20028;-78
2023/01/04 10:57:39;;;;;;;20.27;3.92;;;12.10;99.90;;;;;;6063649;23;20391;-77
2023/01/04 11:00:20;;;;;;;17.27;3.67;;;12.40;99.90;;;;;;6165934;23;20254;-79
2023/01/04 11:02:58;;;;;;;20.45;3.90;;;12.40;99.90;;;;;;6166024;23;20020;-78
2023/01/04 11:05:39;;;;;;;23.85;4.32;;;12.70;99.90;;;;;;6166686;23;20075;-76
2023/01/04 11:09:03;;;;;;;25.63;5.20;;;12.40;99.90;;;;;;6221921;23;20012;-76
2023/01/04 11:11:34;;;;;;;16.80;4.35;;;11.70;99.90;;;;;;6091056;23;20027;-77
2023/01/04 11:14:03;;;;;;;22.17;5.45;;;12.50;99.90;;;;;;6197229;23;20055;-78
2023/01/04 11:16:32;;;;;;;19.35;4.15;;;12.50;99.90;;;;;;6172333;23;20012;-78
2023/01/04 11:19:24;;;;;;;22.38;4.55;;;12.80;99.90;;;;;;6196218;23;20107;-77
2023/01/04 11:22:05;;;;;;;27.45;4.70;;;12.50;99.90;;;;;;6215101;23;20070;-77
2023/01/04 11:24:31;;;;;;;26.58;5.03;;;12.50;99.90;;;;;;6222232;23;20114;-77
2023/01/04 11:27:09;;;;;;;25.65;4.80;;;12.80;99.90;;;;;;6222977;23;20103;-76
2023/01/04 11:30:23;;;;;;;25.95;4.30;;;12.80;99.90;;;;;;6219977;23;20082;-78
2023/01/04 11:33:15;;;;;;;24.52;4.68;;;12.60;99.90;;;;;;6181189;23;20012;-77
2023/01/04 11:35:48;;;;;;;28.42;5.03;;;13.00;99.90;;;;;;6196421;23;20075;-77
2023/01/04 11:38:20;;;;;;;15.80;4.15;;;12.80;99.90;;;;;;6198013;23;20067;-79
2023/01/04 11:41:04;;;;;;;17.27;3.22;;;12.90;99.90;;;;;;6195160;23;20020;-76
2023/01/04 11:43:56;;;;;;;18.15;3.85;;;12.70;99.90;;;;;;6196202;23;20039;-77
2023/01/04 11:46:29;;;;;;;9.10;2.50;;;12.50;99.90;;;;;;6195441;23;20101;-77
2023/01/04 11:48:58;;;;;;;15.90;3.72;;;12.80;99.90;;;;;;6221639;23;20016;-77
2023/01/04 11:51:30;;;;;;;21.98;4.25;;;12.80;99.90;;;;;;6195665;23;20016;-79
2023/01/04 11:54:01;;;;;;;26.73;5.13;;;12.60;99.90;;;;;;6196966;23;20020;-77
2023/01/04 11:56:35;;;;;;;27.30;5.25;;;12.50;99.90;;;;;;6221831;23;20074;-77
2023/01/04 11:59:33;;;;;;;17.92;4.40;;;12.50;99.90;;;;;;6221288;23;20020;-76
2023/01/04 12:02:24;;;;;;;22.58;4.43;;;11.90;99.90;;;;;;6118414;23;20012;-76
2023/01/04 12:04:56;;;;;;;21.08;4.43;;;12.70;99.90;;;;;;6219497;23;20038;-77
2023/01/04 12:07:34;;;;;;;22.65;4.53;;;12.50;99.90;;;;;;6172865;23;20012;-78
2023/01/04 12:10:12;;;;;;;23.17;4.90;;;12.60;99.90;;;;;;6220857;23;20020;-76
2023/01/04 12:13:34;;;;;;;25.75;4.15;;;12.80;99.90;;;;;;6194340;23;20023;-77
2023/01/04 12:16:37;;;;;;;20.38;3.72;;;12.60;99.90;;;;;;6070661;23;20026;-77
2023/01/04 12:19:15;;;;;;;;;;;;;;;;;;;;;
2023/01/04 12:22:19;;;;;;;;;;;;;;;;;;;;;
2023/01/04 12:25:23;;;;;;;15.73;4.10;;;12.50;99.90;;;;;;6074127;23;20018;-78
2023/01/04 12:27:50;;;;;;;15.15;4.47;;;12.10;99.90;;;;;;6048496;23;20101;-77
2023/01/04 12:30:54;;;;;;;20.25;3.75;;;12.80;99.90;;;;;;6184047;23;20012;-77
2023/01/04 12:33:32;;;;;;;20.80;4.13;;;12.80;99.90;;;;;;6025770;23;20319;-77
2023/01/04 12:36:43;;;;;;;14.27;3.13;;;11.20;99.90;;;;;;6077209;23;20073;-78
2023/01/04 12:39:40;;;;;;;15.45;2.85;;;12.60;99.90;;;;;;6203805;23;20500;-77
2023/01/04 12:42:08;;;;;;;16.17;2.95;;;12.80;99.90;;;;;;6194522;23;20023;-76
2023/01/04 12:44:37;;;;;;;16.83;3.78;;;12.90;99.90;;;;;;6218081;23;20027;-76
2023/01/04 12:50:21;;;;;;;13.40;2.58;;;12.60;99.90;;;;;;6217261;23;20028;-76
2023/01/04 12:52:51;;;;;;;;;;;12.90;99.90;;;;;;6218894;23;20024;-77
2023/01/04 12:55:51;;;;;;;11.13;3.13;;;12.50;99.90;;;;;;6219588;23;19922;-77
2023/01/04 12:58:29;;;;;;;8.57;2.72;;;12.60;99.90;;;;;;6193868;23;20019;-77
2023/01/04 13:00:57;;;;;;;10.55;2.30;;;13.00;99.90;;;;;;6193205;23;20067;-77
2023/01/04 13:03:26;;;;;;;13.38;2.72;;;12.70;99.90;;;;;;6218244;23;20313;-78
2023/01/04 13:05:59;;;;;;;9.20;2.40;;;12.50;99.90;;;;;;6216903;23;20089;-76
2023/01/04 13:08:26;;;;;;;12.20;3.53;;;12.50;99.90;;;;;;6220334;23;20160;-76
2023/01/04 13:10:55;;;;;;;9.10;2.45;;;12.80;99.90;;;;;;6195699;23;20078;-75
2023/01/04 13:14:02;;;;;;;12.57;2.50;;;12.40;99.90;;;;;;6193476;23;20046;-75
2023/01/04 13:17:11;;;;;;;12.35;2.50;;;12.30;99.90;;;;;;6221156;23;20094;-75
2023/01/04 13:19:38;;;;;;;10.07;2.88;;;12.80;99.90;;;;;;6152451;23;20302;-75
2023/01/04 13:22:39;;;;;;;12.98;2.50;;;12.50;99.90;;;;;;6196858;23;20229;-75
2023/01/04 13:25:16;;;;;;;12.63;3.50;;;12.40;99.90;;;;;;6188671;23;20160;-73
2023/01/04 13:28:02;;;;;;;9.00;2.50;;;12.30;99.90;;;;;;6193233;23;20214;-74
2023/01/04 13:30:34;;;;;;;9.50;2.65;;;12.40;99.90;;;;;;6196567;23;20016;-75
2023/01/04 13:33:17;;;;;;;10.45;2.33;;;12.80;99.90;;;;;;6220941;23;20078;-75
2023/01/04 13:36:08;;;;;;;19.58;2.92;;;12.30;99.90;;;;;;6195168;23;20039;-75
2023/01/04 13:38:45;;;;;;;11.10;2.53;;;12.50;99.90;;;;;;6218638;23;20250;-75
2023/01/04 13:41:21;;;;;;;13.73;3.25;;;12.20;99.90;;;;;;6195746;23;20042;-75
2023/01/04 13:43:46;;;;;;;10.98;2.85;;;12.30;99.90;;;;;;6219548;23;20366;-75
2023/01/04 13:46:26;;;;;;;16.85;4.00;;;12.40;99.90;;;;;;6195356;23;20058;-75
2023/01/04 13:49:00;;;;;;;18.42;2.95;;;12.50;99.90;;;;;;6218176;23;20464;-76
2023/01/04 13:51:30;;;;;;;14.55;3.55;;;12.60;99.90;;;;;;6195189;23;20016;-75
2023/01/04 13:54:18;;;;;;;17.92;3.70;;;12.30;99.90;;;;;;6220491;23;20024;-75
2023/01/04 13:56:44;;;;;;;19.58;4.00;;;12.30;99.90;;;;;;6218229;23;20023;-75
2023/01/04 13:59:10;;;;;;;12.98;3.42;;;12.60;99.90;;;;;;6167286;23;20082;-75
2023/01/04 14:01:49;;;;;;;9.70;2.42;;;12.20;99.90;;;;;;6194269;23;20020;-75
2023/01/04 14:04:25;;;;;;;14.05;3.78;;;12.50;99.90;;;;;;6217686;23;20020;-74
2023/01/04 14:06:56;;;;;;;17.33;3.45;;;12.20;99.90;;;;;;6216673;23;20020;-74
2023/01/04 14:09:26;;;;;;;21.88;3.63;;;12.20;99.90;;;;;;6193431;23;20051;-75
2023/01/04 14:12:00;;;;;;;19.10;3.97;;;12.50;99.90;;;;;;6217061;23;20270;-75
2023/01/04 14:15:04;;;;;;;19.95;3.55;;;12.30;99.90;;;;;;6216658;23;20019;-75
2023/01/04 14:17:48;;;;;;;20.70;4.57;;;12.40;99.90;;;;;;6195525;23;20016;-73
2023/01/04 14:20:22;;;;;;;16.27;4.65;;;12.20;99.90;;;;;;6194326;23;20043;-74
2023/01/04 14:22:55;;;;;;;18.67;3.22;;;12.30;99.90;;;;;;6216100;23;20048;-75
2023/01/04 14:25:47;;;;;;;15.23;2.90;;;12.00;99.90;;;;;;6218709;23;20207;-75
2023/01/04 14:31:19;;;;;;;15.02;3.50;;;12.50;99.90;;;;;;6186659;23;20020;-75
2023/01/04 14:33:48;;;;;;;17.85;4.78;;;12.00;99.90;;;;;;6220166;23;20199;-74
2023/01/04 14:36:21;;;;;;;13.63;3.47;;;11.90;99.90;;;;;;6223217;23;20334;-74
2023/01/04 14:39:13;;;;;;;19.80;3.47;;;11.80;99.90;;;;;;6222571;23;20012;-74
2023/01/04 14:42:06;;;;;;;20.20;3.55;;;12.20;99.90;;;;;;6184453;23;20026;-75
2023/01/04 14:44:34;;;;;;;14.38;3.88;;;12.10;99.90;;;;;;6197627;23;20012;-74
2023/01/04 14:47:04;;;;;;;21.20;4.03;;;12.20;99.90;;;;;;6222232;23;20047;-75
2023/01/04 14:49:48;;;;;;;20.52;3.38;;;11.80;99.90;;;;;;6222556;23;20191;-74
2023/01/04 14:52:22;;;;;;;19.58;4.60;;;12.20;99.90;;;;;;6175624;23;20122;-75
2023/01/04 14:55:03;;;;;;;;;;;;;;;;;;;;;
2023/01/04 14:57:54;;;;;;;18.90;3.45;;;12.10;99.90;;;;;;6176186;23;20078;-74
2023/01/04 15:00:46;;;;;;;13.55;3.58;;;11.70;99.90;;;;;;6226698;23;20214;-75
2023/01/04 15:03:29;;;;;;;14.35;2.75;;;10.60;99.90;;;;;;6222870;23;20039;-75
2023/01/04 15:05:58;;;;;;;11.88;2.83;;;13.10;99.90;;;;;;6195856;22;20023;-75
2023/01/04 15:08:36;;;;;;;22.27;3.65;;;11.80;99.90;;;;;;6149820;23;20360;-75
2023/01/04 15:15:01;;;;;;;16.33;3.60;;;11.80;99.90;;;;;;6104359;23;20023;-75
2023/01/04 15:17:36;;;;;;;11.73;3.30;;;11.70;99.90;;;;;;6218785;23;20176;-74
2023/01/04 15:20:24;;;;;;;;;;;11.70;99.90;;;;;;6173422;23;20024;-75
2023/01/04 15:22:51;;;;;;;15.65;4.13;;;11.90;99.90;;;;;;6197159;23;19912;-74
2023/01/04 15:25:16;;;;;;;15.57;3.17;;;11.80;99.90;;;;;;6172029;23;20307;-74
2023/01/04 15:34:22;;;;;;;20.42;4.10;;;12.10;99.90;;;;;;6201621;23;20016;-75
2023/01/04 15:40:07;;;;;;;21.20;3.72;;;13.00;99.90;;;;;;6144702;23;20016;-75
2023/01/04 15:43:02;;;;;;;18.10;4.53;;;11.50;99.90;;;;;;6195802;23;20020;-77
2023/01/04 15:46:00;;;;;;;14.02;3.15;;;11.30;99.90;;;;;;6148448;23;20008;-76
2023/01/04 15:48:53;;;;;;;18.05;3.70;;;12.00;99.90;;;;;;6201785;23;20016;-75
2023/01/04 15:51:19;;;;;;;26.48;5.35;;;11.60;99.90;;;;;;6199192;23;20008;-75
2023/01/04 15:53:45;;;;;;;17.25;3.53;;;12.00;99.90;;;;;;6198385;23;20020;-75
2023/01/04 15:56:13;;;;;;;13.52;3.75;;;11.50;99.90;;;;;;6221630;23;20357;-75
2023/01/04 15:58:39;;;;;;;20.77;4.63;;;11.50;99.90;;;;;;6199299;23;20411;-75
2023/01/04 16:01:17;;;;;;;16.55;3.35;;;11.80;99.90;;;;;;6148575;23;20063;-76
2023/01/04 16:03:49;;;;;;;17.00;3.80;;;12.00;99.90;;;;;;6200360;23;20131;-75
2023/01/04 16:06:15;;;;;;;18.73;3.35;;;11.90;99.90;;;;;;6221506;23;20124;-76
2023/01/04 16:08:45;;;;;;;18.35;3.00;;;11.70;99.90;;;;;;6198620;23;20048;-75
2023/01/04 16:14:37;;;;;;;18.17;3.70;;;11.90;99.90;;;;;;6191702;23;20061;-75
2023/01/04 16:17:25;;;;;;;;;;;;;;;;;;;;;
2023/01/04 16:20:13;;;;;;;16.60;3.42;;;11.70;99.90;;;;;;6201036;23;20075;-76
2023/01/04 16:22:45;;;;;;;13.60;3.33;;;11.50;99.90;;;;;;6172774;23;20039;-76